createdAt,value
2018-04-25T00:00:59.409Z,8.30
2018-04-25T00:03:25.808Z,8.20
2018-04-25T00:05:52.235Z,8.20
2018-04-25T00:08:19.486Z,8.10
2018-04-25T00:10:46.994Z,8.10
2018-04-25T00:13:13.789Z,8.10
2018-04-25T00:15:41.956Z,8.20
2018-04-25T00:18:09.231Z,8.20
2018-04-25T00:20:35.928Z,8.10
2018-04-25T00:23:02.417Z,8.20
2018-04-25T00:25:29.560Z,8.20
2018-04-25T00:27:56.046Z,8.20
2018-04-25T00:30:22.434Z,8.10
2018-04-25T00:32:49.015Z,8.20
2018-04-25T00:35:15.425Z,8.20
2018-04-25T00:37:41.974Z,8.20
2018-04-25T00:40:08.649Z,8.10
2018-04-25T00:42:35.820Z,8.20
2018-04-25T00:45:02.255Z,8.20
2018-04-25T00:47:28.665Z,8.30
2018-04-25T00:49:55.061Z,8.20
2018-04-25T00:52:22.655Z,8.20
2018-04-25T00:54:49.849Z,8.20
2018-04-25T00:57:17.165Z,8.20
2018-04-25T00:59:44.117Z,8.30
2018-04-25T01:02:10.798Z,8.00
2018-04-25T01:04:37.278Z,8.20
2018-04-25T01:07:03.818Z,8.30
2018-04-25T01:09:31.061Z,8.30
2018-04-25T01:11:58.230Z,8.40
2018-04-25T01:14:24.559Z,8.30
2018-04-25T01:16:51.355Z,8.30
2018-04-25T01:19:17.839Z,8.30
2018-04-25T01:21:55.241Z,8.30
2018-04-25T01:24:28.801Z,8.30
2018-04-25T01:26:56.581Z,8.30
2018-04-25T01:29:24.412Z,8.30
2018-04-25T01:31:52.495Z,8.40
2018-04-25T01:37:30.897Z,8.40
2018-04-25T01:39:59.130Z,8.40
2018-04-25T01:45:43.032Z,8.30
2018-04-25T01:51:02.904Z,8.30
2018-04-25T01:53:41.486Z,8.30
2018-04-25T01:56:20.305Z,8.30
2018-04-25T02:01:21.739Z,8.30
2018-04-25T02:03:55.546Z,8.30
2018-04-25T02:06:22.734Z,8.40
2018-04-25T02:08:49.547Z,8.40
2018-04-25T02:11:16.747Z,8.30
2018-04-25T02:13:43.602Z,8.30
2018-04-25T02:16:10.938Z,8.30
2018-04-25T02:18:38.175Z,8.20
2018-04-25T02:21:04.682Z,8.10
2018-04-25T02:23:31.797Z,8.20
2018-04-25T02:25:58.578Z,8.20
2018-04-25T02:28:25.807Z,8.20
2018-04-25T02:30:52.707Z,8.20
2018-04-25T02:33:19.849Z,8.30
2018-04-25T02:35:47.758Z,8.30
2018-04-25T02:38:14.913Z,8.30
2018-04-25T02:40:48.245Z,8.30
2018-04-25T02:43:14.672Z,8.20
2018-04-25T02:45:43.588Z,8.20
2018-04-25T02:48:10.430Z,8.40
2018-04-25T02:50:36.910Z,8.20
2018-04-25T02:53:03.647Z,8.60
2018-04-25T02:55:30.120Z,8.20
2018-04-25T02:57:56.613Z,8.20
2018-04-25T03:00:23.149Z,8.20
2018-04-25T03:02:50.543Z,8.20
2018-04-25T03:05:17.821Z,8.20
2018-04-25T03:07:44.563Z,8.20
2018-04-25T03:10:11.748Z,8.30
2018-04-25T03:12:38.287Z,8.20
2018-04-25T03:15:05.636Z,8.20
2018-04-25T03:17:33.577Z,8.30
2018-04-25T03:20:00.346Z,8.30
2018-04-25T03:22:27.471Z,8.40
2018-04-25T03:24:54.197Z,8.40
2018-04-25T03:27:20.951Z,8.40
2018-04-25T03:29:47.308Z,8.40
2018-04-25T03:32:14.878Z,8.30
2018-04-25T03:34:41.289Z,8.40
2018-04-25T03:37:07.753Z,8.40
2018-04-25T03:39:34.175Z,8.50
2018-04-25T03:42:01.361Z,8.50
2018-04-25T03:44:28.556Z,8.50
2018-04-25T03:46:55.722Z,8.50
2018-04-25T03:49:22.501Z,8.60
2018-04-25T03:51:48.922Z,8.60
2018-04-25T03:54:15.359Z,8.60
2018-04-25T03:56:41.909Z,8.60
2018-04-25T03:59:08.377Z,8.80
2018-04-25T04:01:35.537Z,8.70
2018-04-25T04:04:02.677Z,8.70
2018-04-25T04:06:29.794Z,8.80
2018-04-25T04:08:57.745Z,8.80
2018-04-25T04:11:24.538Z,8.60
2018-04-25T04:13:52.030Z,8.90
2018-04-25T04:21:29.974Z,9.00
2018-04-25T04:23:57.202Z,9.00
2018-04-25T04:26:24.358Z,8.90
2018-04-25T04:28:50.786Z,8.90
2018-04-25T04:31:18.352Z,9.20
2018-04-25T04:33:45.568Z,9.20
2018-04-25T04:36:12.003Z,9.20
2018-04-25T04:38:38.556Z,9.30
2018-04-25T04:41:04.981Z,9.30
2018-04-25T04:43:31.405Z,9.30
2018-04-25T04:45:58.531Z,9.40
2018-04-25T04:48:25.662Z,9.40
2018-04-25T04:50:52.480Z,9.50
2018-04-25T04:53:18.847Z,9.50
2018-04-25T04:55:48.929Z,9.60
2018-04-25T04:58:17.152Z,9.70
2018-04-25T05:00:44.666Z,9.80
2018-04-25T05:03:11.930Z,9.70
2018-04-25T05:05:39.200Z,9.80
2018-04-25T05:08:06.619Z,9.80
2018-04-25T05:10:33.498Z,9.80
2018-04-25T05:13:00.410Z,9.90
2018-04-25T05:15:26.857Z,9.90
2018-04-25T05:20:21.393Z,9.90
2018-04-25T05:22:48.700Z,10.10
2018-04-25T05:27:44.121Z,10.20
2018-04-25T05:30:11.228Z,10.20
2018-04-25T05:32:39.446Z,10.30
2018-04-25T05:37:37.152Z,10.50
2018-04-25T05:40:06.543Z,10.40
2018-04-25T05:42:35.017Z,10.50
2018-04-25T05:45:03.479Z,10.50
2018-04-25T05:49:58.723Z,10.80
2018-04-25T05:52:26.229Z,10.90
2018-04-25T05:57:22.287Z,11.00
2018-04-25T05:59:48.829Z,11.00
2018-04-25T06:02:16.458Z,11.10
2018-04-25T06:04:44.283Z,11.20
2018-04-25T06:07:13.527Z,11.20
2018-04-25T06:09:41.297Z,11.30
2018-04-25T06:12:09.676Z,11.30
2018-04-25T06:14:37.171Z,11.40
2018-04-25T06:17:05.708Z,11.50
2018-04-25T06:19:32.476Z,11.50
2018-04-25T06:26:57.488Z,11.70
2018-04-25T06:29:24.465Z,11.80
2018-04-25T06:31:51.988Z,11.80
2018-04-25T06:37:16.587Z,11.90
2018-04-25T06:39:44.423Z,11.90
2018-04-25T06:42:13.817Z,11.90
2018-04-25T06:52:08.547Z,12.20
2018-04-25T07:02:17.359Z,12.30
2018-04-25T07:07:47.585Z,12.50
2018-04-25T07:10:16.116Z,12.60
2018-04-25T07:12:42.708Z,12.60
2018-04-25T07:15:10.738Z,12.80
2018-04-25T07:17:37.304Z,12.90
2018-04-25T07:20:04.463Z,13.00
2018-04-25T07:25:01.003Z,13.10
2018-04-25T07:27:28.872Z,13.50
2018-04-25T07:29:56.273Z,14.30
2018-04-25T07:32:23.730Z,13.30
2018-04-25T07:39:47.148Z,13.70
2018-04-25T07:42:16.718Z,13.90
2018-04-25T07:49:40.590Z,14.00
2018-04-25T07:52:08.608Z,14.10
2018-04-25T07:54:35.467Z,14.20
2018-04-25T07:57:02.738Z,14.00
2018-04-25T07:59:29.314Z,13.90
2018-04-25T08:01:56.608Z,13.80
2018-04-25T08:04:23.974Z,13.90
2018-04-25T08:06:51.519Z,13.50
2018-04-25T08:14:37.474Z,12.90
2018-04-25T08:19:52.585Z,12.90
2018-04-25T08:22:20.432Z,13.00
2018-04-25T08:24:48.032Z,13.20
2018-04-25T08:27:17.675Z,13.20
2018-04-25T08:32:19.454Z,13.10
2018-04-25T08:34:53.469Z,13.00
2018-04-25T08:37:24.561Z,13.00
2018-04-25T08:39:56.059Z,13.00
2018-04-25T08:42:23.765Z,12.90
2018-04-25T08:44:50.584Z,13.20
2018-04-25T08:47:20.141Z,13.20
2018-04-25T08:55:20.329Z,15.80
2018-04-25T08:57:50.732Z,16.50
2018-04-25T09:00:18.824Z,17.10
2018-04-25T09:02:45.909Z,16.70
2018-04-25T09:05:15.848Z,16.40
2018-04-25T09:07:47.818Z,16.10
2018-04-25T09:10:14.644Z,15.70
2018-04-25T09:12:42.398Z,15.50
2018-04-25T09:15:09.231Z,15.10
2018-04-25T09:17:36.648Z,14.90
2018-04-25T09:22:31.632Z,15.40
2018-04-25T09:27:27.161Z,15.80
2018-04-25T09:29:54.990Z,17.00
2018-04-25T09:32:21.531Z,17.90
2018-04-25T09:34:48.050Z,17.30
2018-04-25T09:37:15.083Z,16.90
2018-04-25T09:39:41.929Z,15.70
2018-04-25T09:42:08.566Z,15.50
2018-04-25T09:44:38.611Z,15.20
2018-04-25T09:47:05.791Z,15.50
2018-04-25T09:49:33.265Z,16.20
2018-04-25T09:51:59.781Z,16.80
2018-04-25T09:56:55.930Z,17.30
2018-04-25T09:59:24.079Z,17.40
2018-04-25T10:04:25.133Z,16.00
2018-04-25T10:06:52.122Z,15.70
2018-04-25T10:11:47.368Z,15.40
2018-04-25T10:14:14.551Z,15.30
2018-04-25T10:16:41.842Z,15.30
2018-04-25T10:21:39.896Z,15.70
2018-04-25T10:24:07.116Z,15.70
2018-04-25T10:26:34.379Z,15.50
2018-04-25T10:29:01.909Z,15.40
2018-04-25T10:31:28.621Z,15.20
2018-04-25T10:33:55.612Z,15.00
2018-04-25T10:38:55.771Z,14.70
2018-04-25T10:41:22.905Z,14.60
2018-04-25T10:43:51.280Z,14.70
2018-04-25T10:46:18.715Z,14.30
2018-04-25T10:48:45.457Z,14.50
2018-04-25T10:51:11.914Z,14.50
2018-04-25T10:58:36.298Z,14.00
2018-04-25T11:03:31.905Z,13.70
2018-04-25T11:06:04.040Z,13.60
2018-04-25T11:08:31.534Z,13.50
2018-04-25T11:13:26.921Z,13.20
2018-04-25T11:15:54.098Z,12.90
2018-04-25T11:20:49.050Z,12.70
2018-04-25T11:25:44.642Z,12.60
2018-04-25T11:38:03.825Z,12.90
2018-04-25T11:40:30.663Z,12.50
2018-04-25T11:45:38.369Z,12.50
2018-04-25T11:53:05.141Z,12.20
2018-04-25T11:55:31.917Z,12.30
2018-04-25T11:57:59.933Z,12.30
2018-04-25T12:00:27.525Z,12.10
2018-04-25T12:02:54.042Z,12.50
2018-04-25T12:05:21.517Z,12.40
2018-04-25T12:07:50.236Z,12.10
2018-04-25T12:10:16.816Z,11.60
2018-04-25T12:20:14.826Z,10.50
2018-04-25T12:25:12.215Z,10.30
2018-04-25T12:37:43.083Z,9.90
2018-04-25T12:40:13.146Z,10.00
2018-04-25T12:47:37.885Z,9.50
2018-04-25T13:00:08.000Z,8.60
2018-04-25T13:02:35.921Z,9.20
2018-04-25T13:07:40.308Z,8.40
2018-04-25T13:10:10.884Z,8.10
2018-04-25T13:12:40.213Z,8.10
2018-04-25T13:15:08.295Z,8.10
2018-04-25T13:17:40.021Z,8.30
2018-04-25T13:20:10.388Z,8.40
2018-04-25T13:22:38.808Z,8.40
2018-04-25T13:25:06.396Z,8.60
2018-04-25T13:27:42.260Z,8.70
2018-04-25T13:30:09.854Z,8.80
2018-04-25T13:40:15.718Z,9.90
2018-04-25T13:42:43.907Z,9.90
2018-04-25T13:45:11.672Z,9.90
2018-04-25T13:47:38.088Z,9.60
2018-04-25T13:55:02.737Z,9.70
2018-04-25T13:57:30.040Z,9.90
2018-04-25T14:02:24.882Z,10.70
2018-04-25T14:07:20.619Z,13.20
2018-04-25T14:09:47.517Z,14.70
2018-04-25T14:12:16.645Z,14.40
2018-04-25T14:14:43.113Z,13.30
2018-04-25T14:22:15.739Z,11.50
2018-04-25T14:24:45.872Z,11.80
2018-04-25T14:29:47.103Z,13.30
2018-04-25T14:32:16.389Z,14.60
2018-04-25T14:34:49.893Z,15.10
2018-04-25T14:37:17.439Z,14.90
2018-04-25T14:39:55.310Z,13.90
2018-04-25T14:42:22.599Z,13.10
2018-04-25T14:52:22.046Z,12.30
2018-04-25T14:54:50.322Z,11.50
2018-04-25T14:57:16.695Z,11.20
2018-04-25T14:59:44.092Z,11.00
2018-04-25T15:02:12.072Z,11.10
2018-04-25T15:09:35.835Z,11.40
2018-04-25T15:14:40.596Z,11.70
2018-04-25T15:17:07.112Z,11.80
2018-04-25T15:22:03.882Z,14.10
2018-04-25T15:24:31.260Z,14.00
2018-04-25T15:26:57.809Z,14.10
2018-04-25T15:29:24.769Z,13.50
2018-04-25T15:31:52.008Z,12.30
2018-04-25T15:34:19.189Z,11.80
2018-04-25T15:44:11.215Z,12.80
2018-04-25T15:46:40.141Z,14.30
2018-04-25T15:49:07.431Z,15.40
2018-04-25T15:51:34.158Z,14.20
2018-04-25T15:54:02.009Z,12.90
2018-04-25T15:56:29.833Z,13.60
2018-04-25T15:58:57.265Z,14.60
2018-04-25T16:01:24.287Z,13.30
2018-04-25T16:06:25.389Z,13.20
2018-04-25T16:11:22.636Z,12.70
2018-04-25T16:13:49.056Z,12.10
2018-04-25T16:16:17.996Z,11.80
2018-04-25T16:23:51.680Z,13.30
2018-04-25T16:26:19.933Z,12.90
2018-04-25T16:28:46.396Z,12.20
2018-04-25T16:31:12.905Z,11.60
2018-04-25T16:33:39.373Z,11.50
2018-04-25T16:36:07.014Z,11.60
2018-04-25T16:38:34.837Z,12.10
2018-04-25T16:43:37.977Z,11.80
2018-04-25T16:46:04.729Z,11.40
2018-04-25T16:53:38.430Z,11.10
2018-04-25T16:56:07.348Z,10.90
2018-04-25T16:58:34.453Z,10.90
2018-04-25T17:01:02.376Z,10.70
2018-04-25T17:05:59.970Z,11.00
2018-04-25T17:08:26.769Z,11.10
2018-04-25T17:13:27.987Z,12.00
2018-04-25T17:15:56.988Z,12.30
2018-04-25T17:18:25.035Z,11.90
2018-04-25T17:20:51.634Z,11.30
2018-04-25T17:23:19.591Z,11.00
2018-04-25T17:25:48.275Z,10.60
2018-04-25T17:30:44.674Z,10.50
2018-04-25T17:33:13.326Z,10.40
2018-04-25T17:35:41.145Z,10.40
2018-04-25T17:38:08.198Z,10.30
2018-04-25T17:40:35.766Z,10.30
2018-04-25T17:43:07.711Z,10.60
2018-04-25T17:45:39.428Z,11.30
2018-04-25T17:48:07.982Z,11.50
2018-04-25T17:53:07.159Z,12.00
2018-04-25T17:55:34.992Z,11.60
2018-04-25T17:58:01.545Z,11.30
2018-04-25T18:02:58.637Z,10.40
2018-04-25T18:05:25.854Z,10.20
2018-04-25T18:10:20.990Z,9.70
2018-04-25T18:12:47.994Z,9.60
2018-04-25T18:15:16.041Z,9.50
2018-04-25T18:17:42.991Z,9.40
2018-04-25T18:20:10.840Z,9.30
2018-04-25T18:22:38.360Z,8.90
2018-04-25T18:25:04.858Z,9.10
2018-04-25T18:27:31.902Z,9.10
2018-04-25T18:29:59.104Z,9.00
2018-04-25T18:32:26.695Z,8.90
2018-04-25T18:34:54.321Z,8.70
2018-04-25T18:37:21.617Z,8.70
2018-04-25T18:39:51.099Z,8.50
2018-04-25T18:42:18.653Z,8.50
2018-04-25T18:44:46.195Z,8.40
2018-04-25T18:47:13.595Z,8.40
2018-04-25T18:54:44.679Z,8.20
2018-04-25T18:57:12.669Z,8.00
2018-04-25T18:59:40.025Z,7.90
2018-04-25T19:02:07.398Z,7.90
2018-04-25T19:04:33.935Z,7.90
2018-04-25T19:07:00.544Z,7.70
2018-04-25T19:12:08.610Z,7.70
2018-04-25T19:14:39.999Z,7.70
2018-04-25T19:17:07.419Z,7.60
2018-04-25T19:22:04.166Z,7.60
2018-04-25T19:24:31.225Z,7.60
2018-04-25T19:26:59.313Z,7.70
2018-04-25T19:29:26.270Z,7.70
2018-04-25T19:31:52.861Z,7.70
2018-04-25T19:36:49.295Z,7.40
2018-04-25T19:39:16.573Z,7.40
2018-04-25T19:41:45.329Z,7.40
2018-04-25T19:46:47.906Z,7.40
2018-04-25T19:51:44.090Z,7.30
2018-04-25T19:54:18.861Z,7.30
2018-04-25T19:56:50.051Z,7.20
2018-04-25T20:09:15.331Z,7.30
2018-04-25T20:11:42.566Z,7.20
2018-04-25T20:14:09.835Z,7.20
2018-04-25T20:19:06.105Z,7.30
2018-04-25T20:21:33.159Z,7.40
2018-04-25T20:24:00.747Z,7.40
2018-04-25T20:26:28.149Z,7.20
2018-04-25T20:28:55.112Z,7.30
2018-04-25T20:33:54.456Z,7.20
2018-04-25T20:36:22.631Z,7.40
2018-04-25T20:38:51.369Z,7.40
2018-04-25T20:41:19.788Z,7.30
2018-04-25T20:43:49.281Z,7.40
2018-04-25T20:46:16.034Z,7.40
2018-04-25T20:48:43.058Z,7.20
2018-04-25T20:51:09.931Z,6.80
2018-04-25T20:53:36.866Z,7.50
2018-04-25T20:56:03.829Z,7.50
2018-04-25T20:58:32.859Z,7.90
2018-04-25T21:00:59.739Z,7.40
2018-04-25T21:03:28.289Z,7.40
2018-04-25T21:05:55.525Z,7.30
2018-04-25T21:08:25.370Z,7.30
2018-04-25T21:10:52.321Z,7.20
2018-04-25T21:13:18.950Z,7.20
2018-04-25T21:18:13.708Z,7.20
2018-04-25T21:20:41.288Z,7.20
2018-04-25T21:23:07.633Z,7.80
2018-04-25T21:30:38.308Z,7.70
2018-04-25T21:35:34.856Z,7.90
2018-04-25T21:38:04.636Z,7.80
2018-04-25T21:43:07.291Z,7.90
2018-04-25T21:50:41.684Z,7.90
2018-04-25T21:53:09.865Z,8.00
2018-04-25T21:58:07.782Z,7.90
2018-04-25T22:00:35.996Z,8.00
2018-04-25T22:05:31.999Z,8.00
2018-04-25T22:08:00.574Z,8.10
2018-04-25T22:10:34.597Z,8.20
2018-04-25T22:13:01.945Z,8.10
2018-04-25T22:15:28.343Z,8.30
2018-04-25T22:17:55.799Z,8.30
2018-04-25T22:23:04.115Z,8.40
2018-04-25T22:25:33.080Z,8.50
2018-04-25T22:28:01.423Z,8.50
2018-04-25T22:30:29.548Z,8.50
2018-04-25T22:32:57.941Z,8.50
2018-04-25T22:35:25.160Z,8.50
2018-04-25T22:37:51.766Z,8.50
2018-04-25T22:40:20.599Z,8.50
2018-04-25T22:42:48.799Z,8.50
2018-04-25T22:45:17.914Z,8.60
2018-04-25T22:47:45.520Z,8.60
2018-04-25T22:50:14.174Z,8.60
2018-04-25T22:52:40.586Z,8.50
2018-04-25T22:55:11.995Z,8.50
2018-04-25T22:57:39.889Z,8.50
2018-04-25T23:00:07.213Z,8.50
2018-04-25T23:02:34.525Z,8.60
2018-04-25T23:05:02.530Z,8.50
2018-04-25T23:10:00.230Z,8.50
2018-04-25T23:12:26.674Z,8.40
2018-04-25T23:17:22.872Z,8.40
2018-04-25T23:19:50.265Z,8.40
2018-04-25T23:22:17.081Z,8.40
2018-04-25T23:24:45.385Z,8.40
2018-04-25T23:27:13.439Z,8.30
2018-04-25T23:29:40.264Z,8.30
2018-04-25T23:32:06.821Z,8.20
2018-04-25T23:37:02.753Z,8.10
2018-04-25T23:39:30.653Z,8.00
2018-04-25T23:41:57.913Z,8.00
2018-04-25T23:44:24.383Z,7.90
2018-04-25T23:46:50.880Z,7.90
2018-04-25T23:49:17.671Z,7.80
2018-04-25T23:51:44.143Z,7.90
2018-04-25T23:54:11.308Z,7.90
2018-04-25T23:56:38.315Z,7.90
2018-04-25T23:59:05.592Z,7.90
